sensor_id;sensor_type;location;lat;lon;timestamp;temperature;humidity
51029;DHT22;37054;52.054;8.600;2023-06-14T00:02:01;20.50;35.70
51029;DHT22;37054;52.054;8.600;2023-06-14T00:04:26;20.40;35.50
51029;DHT22;37054;52.054;8.600;2023-06-14T00:06:51;20.40;35.40
51029;DHT22;37054;52.054;8.600;2023-06-14T00:09:18;20.30;35.40
51029;DHT22;37054;52.054;8.600;2023-06-14T00:11:43;20.30;35.50
51029;DHT22;37054;52.054;8.600;2023-06-14T00:14:09;20.20;35.40
51029;DHT22;37054;52.054;8.600;2023-06-14T00:16:35;20.00;35.40
51029;DHT22;37054;52.054;8.600;2023-06-14T00:19:01;20.00;35.50
51029;DHT22;37054;52.054;8.600;2023-06-14T00:21:29;19.80;35.60
51029;DHT22;37054;52.054;8.600;2023-06-14T00:23:55;19.80;35.80
51029;DHT22;37054;52.054;8.600;2023-06-14T00:26:20;19.70;36.00
51029;DHT22;37054;52.054;8.600;2023-06-14T00:28:46;19.60;36.30
51029;DHT22;37054;52.054;8.600;2023-06-14T00:31:11;19.50;36.20
51029;DHT22;37054;52.054;8.600;2023-06-14T00:33:37;19.40;36.20
51029;DHT22;37054;52.054;8.600;2023-06-14T00:36:02;19.40;36.30
51029;DHT22;37054;52.054;8.600;2023-06-14T00:38:28;19.30;36.30
51029;DHT22;37054;52.054;8.600;2023-06-14T00:40:53;19.20;36.30
51029;DHT22;37054;52.054;8.600;2023-06-14T00:43:18;19.20;36.40
51029;DHT22;37054;52.054;8.600;2023-06-14T00:45:44;19.10;36.30
51029;DHT22;37054;52.054;8.600;2023-06-14T00:48:09;19.00;36.30
51029;DHT22;37054;52.054;8.600;2023-06-14T00:50:36;19.00;36.20
51029;DHT22;37054;52.054;8.600;2023-06-14T00:53:01;18.90;36.20
51029;DHT22;37054;52.054;8.600;2023-06-14T00:55:27;18.80;36.50
51029;DHT22;37054;52.054;8.600;2023-06-14T00:57:54;18.80;36.40
51029;DHT22;37054;52.054;8.600;2023-06-14T01:00:19;18.70;36.40
51029;DHT22;37054;52.054;8.600;2023-06-14T01:02:45;18.60;36.40
51029;DHT22;37054;52.054;8.600;2023-06-14T01:05:10;18.40;36.50
51029;DHT22;37054;52.054;8.600;2023-06-14T01:10:22;18.30;36.70
51029;DHT22;37054;52.054;8.600;2023-06-14T01:12:52;18.20;36.90
51029;DHT22;37054;52.054;8.600;2023-06-14T01:15:21;18.10;37.40
51029;DHT22;37054;52.054;8.600;2023-06-14T01:17:49;18.00;37.50
51029;DHT22;37054;52.054;8.600;2023-06-14T01:20:16;17.90;37.50
51029;DHT22;37054;52.054;8.600;2023-06-14T01:22:52;17.80;37.70
51029;DHT22;37054;52.054;8.600;2023-06-14T01:25:18;17.80;37.90
51029;DHT22;37054;52.054;8.600;2023-06-14T01:27:53;17.70;38.00
51029;DHT22;37054;52.054;8.600;2023-06-14T01:30:20;17.60;38.20
51029;DHT22;37054;52.054;8.600;2023-06-14T01:32:46;17.60;38.60
51029;DHT22;37054;52.054;8.600;2023-06-14T01:35:12;17.50;38.50
51029;DHT22;37054;52.054;8.600;2023-06-14T01:37:37;17.40;38.70
51029;DHT22;37054;52.054;8.600;2023-06-14T01:40:04;17.30;38.80
51029;DHT22;37054;52.054;8.600;2023-06-14T01:42:32;17.30;38.90
51029;DHT22;37054;52.054;8.600;2023-06-14T01:44:58;17.20;38.90
51029;DHT22;37054;52.054;8.600;2023-06-14T01:47:24;17.10;39.20
51029;DHT22;37054;52.054;8.600;2023-06-14T01:49:49;17.00;39.10
51029;DHT22;37054;52.054;8.600;2023-06-14T01:52:15;17.00;39.20
51029;DHT22;37054;52.054;8.600;2023-06-14T01:54:41;16.90;39.30
51029;DHT22;37054;52.054;8.600;2023-06-14T01:57:07;16.80;39.40
51029;DHT22;37054;52.054;8.600;2023-06-14T01:59:33;16.80;40.00
51029;DHT22;37054;52.054;8.600;2023-06-14T02:02:01;16.70;40.10
51029;DHT22;37054;52.054;8.600;2023-06-14T02:04:26;16.70;40.00
51029;DHT22;37054;52.054;8.600;2023-06-14T02:06:52;16.60;40.10
51029;DHT22;37054;52.054;8.600;2023-06-14T02:09:17;16.50;40.10
51029;DHT22;37054;52.054;8.600;2023-06-14T02:11:43;16.50;40.20
51029;DHT22;37054;52.054;8.600;2023-06-14T02:14:08;16.40;40.60
51029;DHT22;37054;52.054;8.600;2023-06-14T02:16:37;16.40;40.60
51029;DHT22;37054;52.054;8.600;2023-06-14T02:19:02;16.30;40.90
51029;DHT22;37054;52.054;8.600;2023-06-14T02:21:27;16.30;40.90
51029;DHT22;37054;52.054;8.600;2023-06-14T02:23:53;16.20;40.90
51029;DHT22;37054;52.054;8.600;2023-06-14T02:26:18;16.20;41.10
51029;DHT22;37054;52.054;8.600;2023-06-14T02:28:44;16.10;41.10
51029;DHT22;37054;52.054;8.600;2023-06-14T02:31:09;16.10;41.20
51029;DHT22;37054;52.054;8.600;2023-06-14T02:33:35;16.00;41.50
51029;DHT22;37054;52.054;8.600;2023-06-14T02:36:00;16.00;42.00
51029;DHT22;37054;52.054;8.600;2023-06-14T02:38:27;15.90;42.60
51029;DHT22;37054;52.054;8.600;2023-06-14T02:40:53;15.80;42.60
51029;DHT22;37054;52.054;8.600;2023-06-14T02:43:18;15.80;42.90
51029;DHT22;37054;52.054;8.600;2023-06-14T02:45:45;15.80;42.90
51029;DHT22;37054;52.054;8.600;2023-06-14T02:48:10;15.80;43.00
51029;DHT22;37054;52.054;8.600;2023-06-14T02:50:36;15.80;43.10
51029;DHT22;37054;52.054;8.600;2023-06-14T02:53:01;15.80;43.20
51029;DHT22;37054;52.054;8.600;2023-06-14T02:55:28;15.70;43.20
51029;DHT22;37054;52.054;8.600;2023-06-14T02:57:53;15.70;43.20
51029;DHT22;37054;52.054;8.600;2023-06-14T03:00:19;15.70;43.20
51029;DHT22;37054;52.054;8.600;2023-06-14T03:02:44;15.60;43.40
51029;DHT22;37054;52.054;8.600;2023-06-14T03:05:11;15.60;43.50
51029;DHT22;37054;52.054;8.600;2023-06-14T03:07:36;15.60;43.60
51029;DHT22;37054;52.054;8.600;2023-06-14T03:10:07;15.50;43.70
51029;DHT22;37054;52.054;8.600;2023-06-14T03:12:33;15.50;43.80
51029;DHT22;37054;52.054;8.600;2023-06-14T03:14:58;15.50;43.90
51029;DHT22;37054;52.054;8.600;2023-06-14T03:17:29;15.50;43.90
51029;DHT22;37054;52.054;8.600;2023-06-14T03:19:57;15.50;44.00
51029;DHT22;37054;52.054;8.600;2023-06-14T03:22:22;15.60;44.20
51029;DHT22;37054;52.054;8.600;2023-06-14T03:24:50;15.70;44.50
51029;DHT22;37054;52.054;8.600;2023-06-14T03:27:16;15.80;44.70
51029;DHT22;37054;52.054;8.600;2023-06-14T03:29:42;16.00;44.70
51029;DHT22;37054;52.054;8.600;2023-06-14T03:32:08;16.20;44.80
51029;DHT22;37054;52.054;8.600;2023-06-14T03:34:33;16.30;44.60
51029;DHT22;37054;52.054;8.600;2023-06-14T03:36:58;16.60;44.70
51029;DHT22;37054;52.054;8.600;2023-06-14T03:39:24;16.80;44.90
51029;DHT22;37054;52.054;8.600;2023-06-14T03:41:50;17.10;45.10
51029;DHT22;37054;52.054;8.600;2023-06-14T03:44:16;17.40;45.00
51029;DHT22;37054;52.054;8.600;2023-06-14T03:46:42;17.80;44.80
51029;DHT22;37054;52.054;8.600;2023-06-14T03:49:08;18.10;44.60
51029;DHT22;37054;52.054;8.600;2023-06-14T03:51:33;18.40;44.40
51029;DHT22;37054;52.054;8.600;2023-06-14T03:54:00;18.80;44.10
51029;DHT22;37054;52.054;8.600;2023-06-14T03:56:26;19.10;43.80
51029;DHT22;37054;52.054;8.600;2023-06-14T03:58:52;19.50;43.50
51029;DHT22;37054;52.054;8.600;2023-06-14T04:01:18;19.80;43.20
51029;DHT22;37054;52.054;8.600;2023-06-14T04:03:43;20.20;43.00
51029;DHT22;37054;52.054;8.600;2023-06-14T04:06:08;20.50;42.50
51029;DHT22;37054;52.054;8.600;2023-06-14T04:08:34;20.90;42.10
51029;DHT22;37054;52.054;8.600;2023-06-14T04:11:00;21.20;41.70
51029;DHT22;37054;52.054;8.600;2023-06-14T04:13:25;21.60;41.40
51029;DHT22;37054;52.054;8.600;2023-06-14T04:15:51;21.90;41.00
51029;DHT22;37054;52.054;8.600;2023-06-14T04:18:16;22.30;40.50
51029;DHT22;37054;52.054;8.600;2023-06-14T04:20:43;22.60;39.90
51029;DHT22;37054;52.054;8.600;2023-06-14T04:23:12;22.90;39.20
51029;DHT22;37054;52.054;8.600;2023-06-14T04:25:38;23.30;39.00
51029;DHT22;37054;52.054;8.600;2023-06-14T04:28:03;23.70;38.40
51029;DHT22;37054;52.054;8.600;2023-06-14T04:30:29;24.00;38.10
51029;DHT22;37054;52.054;8.600;2023-06-14T04:32:56;24.30;37.80
51029;DHT22;37054;52.054;8.600;2023-06-14T04:35:22;24.80;37.20
51029;DHT22;37054;52.054;8.600;2023-06-14T04:37:49;25.20;36.90
51029;DHT22;37054;52.054;8.600;2023-06-14T04:40:14;25.50;36.30
51029;DHT22;37054;52.054;8.600;2023-06-14T04:42:40;25.90;35.40
51029;DHT22;37054;52.054;8.600;2023-06-14T04:45:06;26.30;34.90
51029;DHT22;37054;52.054;8.600;2023-06-14T04:47:32;26.60;34.10
51029;DHT22;37054;52.054;8.600;2023-06-14T04:49:59;26.90;33.40
51029;DHT22;37054;52.054;8.600;2023-06-14T04:52:25;27.10;32.60
51029;DHT22;37054;52.054;8.600;2023-06-14T04:54:52;27.20;32.20
51029;DHT22;37054;52.054;8.600;2023-06-14T04:57:19;27.40;31.40
51029;DHT22;37054;52.054;8.600;2023-06-14T04:59:47;27.50;31.20
51029;DHT22;37054;52.054;8.600;2023-06-14T05:02:13;27.70;31.00
51029;DHT22;37054;52.054;8.600;2023-06-14T05:04:39;28.00;31.00
51029;DHT22;37054;52.054;8.600;2023-06-14T05:07:06;28.30;30.70
51029;DHT22;37054;52.054;8.600;2023-06-14T05:09:32;28.50;29.80
51029;DHT22;37054;52.054;8.600;2023-06-14T05:11:58;28.70;29.40
51029;DHT22;37054;52.054;8.600;2023-06-14T05:14:25;28.90;29.00
51029;DHT22;37054;52.054;8.600;2023-06-14T05:16:51;29.00;28.50
51029;DHT22;37054;52.054;8.600;2023-06-14T05:19:16;29.10;28.50
51029;DHT22;37054;52.054;8.600;2023-06-14T05:21:43;29.30;28.20
51029;DHT22;37054;52.054;8.600;2023-06-14T05:24:09;29.50;27.80
51029;DHT22;37054;52.054;8.600;2023-06-14T05:26:34;29.60;27.60
51029;DHT22;37054;52.054;8.600;2023-06-14T05:29:00;29.70;27.50
51029;DHT22;37054;52.054;8.600;2023-06-14T05:31:26;29.80;27.40
51029;DHT22;37054;52.054;8.600;2023-06-14T05:33:52;30.20;27.40
51029;DHT22;37054;52.054;8.600;2023-06-14T05:36:18;30.40;26.90
51029;DHT22;37054;52.054;8.600;2023-06-14T05:38:43;30.60;26.40
51029;DHT22;37054;52.054;8.600;2023-06-14T05:41:09;30.60;26.10
51029;DHT22;37054;52.054;8.600;2023-06-14T05:43:34;30.60;26.10
51029;DHT22;37054;52.054;8.600;2023-06-14T05:46:00;30.80;26.10
51029;DHT22;37054;52.054;8.600;2023-06-14T05:48:25;30.90;25.80
51029;DHT22;37054;52.054;8.600;2023-06-14T05:50:50;31.00;25.70
51029;DHT22;37054;52.054;8.600;2023-06-14T05:53:16;31.00;25.20
51029;DHT22;37054;52.054;8.600;2023-06-14T05:55:42;30.90;25.20
51029;DHT22;37054;52.054;8.600;2023-06-14T05:58:07;30.80;25.00
51029;DHT22;37054;52.054;8.600;2023-06-14T06:00:33;30.70;25.30
51029;DHT22;37054;52.054;8.600;2023-06-14T06:02:58;30.60;25.20
51029;DHT22;37054;52.054;8.600;2023-06-14T06:05:24;30.60;25.20
51029;DHT22;37054;52.054;8.600;2023-06-14T06:07:50;30.50;25.10
51029;DHT22;37054;52.054;8.600;2023-06-14T06:10:16;30.40;25.30
51029;DHT22;37054;52.054;8.600;2023-06-14T06:12:41;30.40;25.40
51029;DHT22;37054;52.054;8.600;2023-06-14T06:15:07;30.50;25.50
51029;DHT22;37054;52.054;8.600;2023-06-14T06:17:33;30.50;25.50
51029;DHT22;37054;52.054;8.600;2023-06-14T06:19:59;30.50;25.40
51029;DHT22;37054;52.054;8.600;2023-06-14T06:22:25;30.60;25.40
51029;DHT22;37054;52.054;8.600;2023-06-14T06:24:50;30.60;25.40
51029;DHT22;37054;52.054;8.600;2023-06-14T06:27:16;30.70;25.20
51029;DHT22;37054;52.054;8.600;2023-06-14T06:29:44;30.80;24.80
51029;DHT22;37054;52.054;8.600;2023-06-14T06:32:10;30.80;24.60
51029;DHT22;37054;52.054;8.600;2023-06-14T06:34:35;30.70;24.50
51029;DHT22;37054;52.054;8.600;2023-06-14T06:37:01;30.60;24.40
51029;DHT22;37054;52.054;8.600;2023-06-14T06:39:26;30.70;24.40
51029;DHT22;37054;52.054;8.600;2023-06-14T06:41:52;30.60;24.50
51029;DHT22;37054;52.054;8.600;2023-06-14T06:44:17;30.70;24.40
51029;DHT22;37054;52.054;8.600;2023-06-14T06:46:43;30.70;24.10
51029;DHT22;37054;52.054;8.600;2023-06-14T06:49:09;30.50;24.10
51029;DHT22;37054;52.054;8.600;2023-06-14T06:51:35;30.60;24.40
51029;DHT22;37054;52.054;8.600;2023-06-14T06:54:02;30.80;24.40
51029;DHT22;37054;52.054;8.600;2023-06-14T06:56:27;30.80;23.90
51029;DHT22;37054;52.054;8.600;2023-06-14T06:58:53;30.80;24.20
51029;DHT22;37054;52.054;8.600;2023-06-14T07:01:18;31.10;24.00
51029;DHT22;37054;52.054;8.600;2023-06-14T07:03:45;31.20;23.60
51029;DHT22;37054;52.054;8.600;2023-06-14T07:06:10;31.20;23.60
51029;DHT22;37054;52.054;8.600;2023-06-14T07:08:36;31.30;23.30
51029;DHT22;37054;52.054;8.600;2023-06-14T07:11:04;31.20;23.60
51029;DHT22;37054;52.054;8.600;2023-06-14T07:13:30;31.40;23.50
51029;DHT22;37054;52.054;8.600;2023-06-14T07:15:59;31.70;23.30
51029;DHT22;37054;52.054;8.600;2023-06-14T07:18:25;31.80;22.90
51029;DHT22;37054;52.054;8.600;2023-06-14T07:20:50;31.80;23.00
51029;DHT22;37054;52.054;8.600;2023-06-14T07:23:17;32.00;22.90
51029;DHT22;37054;52.054;8.600;2023-06-14T07:25:42;32.10;23.00
51029;DHT22;37054;52.054;8.600;2023-06-14T07:28:08;32.10;22.30
51029;DHT22;37054;52.054;8.600;2023-06-14T07:30:33;31.80;22.00
51029;DHT22;37054;52.054;8.600;2023-06-14T07:32:59;31.50;22.40
51029;DHT22;37054;52.054;8.600;2023-06-14T07:35:25;31.30;22.60
51029;DHT22;37054;52.054;8.600;2023-06-14T07:37:50;31.20;22.70
51029;DHT22;37054;52.054;8.600;2023-06-14T07:40:16;30.80;23.40
51029;DHT22;37054;52.054;8.600;2023-06-14T07:42:41;30.80;23.10
51029;DHT22;37054;52.054;8.600;2023-06-14T07:45:07;30.70;23.20
51029;DHT22;37054;52.054;8.600;2023-06-14T07:47:32;30.70;23.30
51029;DHT22;37054;52.054;8.600;2023-06-14T07:49:58;30.60;23.30
51029;DHT22;37054;52.054;8.600;2023-06-14T07:52:23;30.60;23.40
51029;DHT22;37054;52.054;8.600;2023-06-14T07:54:49;30.50;23.50
51029;DHT22;37054;52.054;8.600;2023-06-14T07:57:14;30.50;23.60
51029;DHT22;37054;52.054;8.600;2023-06-14T07:59:40;30.70;23.70
51029;DHT22;37054;52.054;8.600;2023-06-14T08:02:05;30.80;23.30
51029;DHT22;37054;52.054;8.600;2023-06-14T08:04:31;30.80;23.50
51029;DHT22;37054;52.054;8.600;2023-06-14T08:06:57;30.80;23.50
51029;DHT22;37054;52.054;8.600;2023-06-14T08:09:22;30.80;23.60
51029;DHT22;37054;52.054;8.600;2023-06-14T08:11:48;31.00;23.60
51029;DHT22;37054;52.054;8.600;2023-06-14T08:14:13;31.00;23.20
51029;DHT22;37054;52.054;8.600;2023-06-14T08:16:39;30.90;23.60
51029;DHT22;37054;52.054;8.600;2023-06-14T08:19:04;30.90;23.70
51029;DHT22;37054;52.054;8.600;2023-06-14T08:21:30;31.00;23.70
51029;DHT22;37054;52.054;8.600;2023-06-14T08:23:58;31.10;23.70
51029;DHT22;37054;52.054;8.600;2023-06-14T08:26:24;31.20;23.70
51029;DHT22;37054;52.054;8.600;2023-06-14T08:28:54;31.20;23.60
51029;DHT22;37054;52.054;8.600;2023-06-14T08:31:20;31.30;23.70
51029;DHT22;37054;52.054;8.600;2023-06-14T08:33:45;31.40;23.50
51029;DHT22;37054;52.054;8.600;2023-06-14T08:36:11;31.50;23.70
51029;DHT22;37054;52.054;8.600;2023-06-14T08:38:37;31.80;23.60
51029;DHT22;37054;52.054;8.600;2023-06-14T08:41:03;31.90;23.30
51029;DHT22;37054;52.054;8.600;2023-06-14T08:43:29;32.20;23.30
51029;DHT22;37054;52.054;8.600;2023-06-14T08:45:58;32.30;23.20
51029;DHT22;37054;52.054;8.600;2023-06-14T08:48:25;32.50;22.90
51029;DHT22;37054;52.054;8.600;2023-06-14T08:50:51;32.40;22.80
51029;DHT22;37054;52.054;8.600;2023-06-14T08:53:18;32.40;23.10
51029;DHT22;37054;52.054;8.600;2023-06-14T08:55:45;32.70;22.90
51029;DHT22;37054;52.054;8.600;2023-06-14T08:58:10;32.80;22.50
51029;DHT22;37054;52.054;8.600;2023-06-14T09:00:45;33.00;22.50
51029;DHT22;37054;52.054;8.600;2023-06-14T09:03:11;33.10;22.30
51029;DHT22;37054;52.054;8.600;2023-06-14T09:05:38;33.20;22.30
51029;DHT22;37054;52.054;8.600;2023-06-14T09:08:03;33.30;22.10
51029;DHT22;37054;52.054;8.600;2023-06-14T09:10:31;33.30;21.90
51029;DHT22;37054;52.054;8.600;2023-06-14T09:13:02;33.30;22.00
51029;DHT22;37054;52.054;8.600;2023-06-14T09:15:28;33.60;22.00
51029;DHT22;37054;52.054;8.600;2023-06-14T09:17:53;33.70;21.60
51029;DHT22;37054;52.054;8.600;2023-06-14T09:20:19;33.70;21.50
51029;DHT22;37054;52.054;8.600;2023-06-14T09:22:45;33.40;21.50
51029;DHT22;37054;52.054;8.600;2023-06-14T09:25:11;33.00;21.30
51029;DHT22;37054;52.054;8.600;2023-06-14T09:27:40;32.70;22.00
51029;DHT22;37054;52.054;8.600;2023-06-14T09:30:08;32.80;22.30
51029;DHT22;37054;52.054;8.600;2023-06-14T09:32:38;33.00;22.00
51029;DHT22;37054;52.054;8.600;2023-06-14T09:35:05;33.20;21.90
51029;DHT22;37054;52.054;8.600;2023-06-14T09:37:32;33.40;21.90
51029;DHT22;37054;52.054;8.600;2023-06-14T09:39:58;33.70;21.70
51029;DHT22;37054;52.054;8.600;2023-06-14T09:42:23;33.80;21.50
51029;DHT22;37054;52.054;8.600;2023-06-14T09:44:54;33.80;21.10
51029;DHT22;37054;52.054;8.600;2023-06-14T09:47:20;33.90;21.20
51029;DHT22;37054;52.054;8.600;2023-06-14T09:49:46;33.90;20.90
51029;DHT22;37054;52.054;8.600;2023-06-14T09:52:14;33.70;21.00
51029;DHT22;37054;52.054;8.600;2023-06-14T09:54:40;33.80;21.20
51029;DHT22;37054;52.054;8.600;2023-06-14T09:57:07;34.00;21.30
51029;DHT22;37054;52.054;8.600;2023-06-14T09:59:34;34.10;21.10
51029;DHT22;37054;52.054;8.600;2023-06-14T10:02:02;34.30;20.80
51029;DHT22;37054;52.054;8.600;2023-06-14T10:04:29;34.30;20.40
51029;DHT22;37054;52.054;8.600;2023-06-14T10:06:55;34.00;20.60
51029;DHT22;37054;52.054;8.600;2023-06-14T10:09:21;33.90;20.80
51029;DHT22;37054;52.054;8.600;2023-06-14T10:11:47;34.00;21.10
51029;DHT22;37054;52.054;8.600;2023-06-14T10:14:13;34.30;20.90
51029;DHT22;37054;52.054;8.600;2023-06-14T10:16:56;34.70;20.90
51029;DHT22;37054;52.054;8.600;2023-06-14T10:19:29;35.00;20.30
51029;DHT22;37054;52.054;8.600;2023-06-14T10:22:05;34.60;20.00
51029;DHT22;37054;52.054;8.600;2023-06-14T10:24:38;34.20;20.20
51029;DHT22;37054;52.054;8.600;2023-06-14T10:27:06;33.60;20.70
51029;DHT22;37054;52.054;8.600;2023-06-14T10:30:01;33.50;21.20
51029;DHT22;37054;52.054;8.600;2023-06-14T10:32:26;33.60;21.10
51029;DHT22;37054;52.054;8.600;2023-06-14T10:35:16;33.50;21.10
51029;DHT22;37054;52.054;8.600;2023-06-14T10:37:39;33.40;21.30
51029;DHT22;37054;52.054;8.600;2023-06-14T10:40:05;33.30;21.80
51029;DHT22;37054;52.054;8.600;2023-06-14T10:42:33;33.30;21.80
51029;DHT22;37054;52.054;8.600;2023-06-14T10:44:59;33.20;22.10
51029;DHT22;37054;52.054;8.600;2023-06-14T10:47:32;33.20;22.30
51029;DHT22;37054;52.054;8.600;2023-06-14T10:52:32;33.40;21.90
51029;DHT22;37054;52.054;8.600;2023-06-14T10:54:59;33.60;21.80
51029;DHT22;37054;52.054;8.600;2023-06-14T10:57:24;33.80;21.70
51029;DHT22;37054;52.054;8.600;2023-06-14T10:59:50;34.00;21.40
51029;DHT22;37054;52.054;8.600;2023-06-14T11:09:52;33.80;21.00
51029;DHT22;37054;52.054;8.600;2023-06-14T11:12:22;33.70;20.20
51029;DHT22;37054;52.054;8.600;2023-06-14T11:14:49;33.60;20.50
51029;DHT22;37054;52.054;8.600;2023-06-14T11:17:15;33.80;20.30
51029;DHT22;37054;52.054;8.600;2023-06-14T11:19:40;33.80;20.30
51029;DHT22;37054;52.054;8.600;2023-06-14T11:22:06;34.00;20.40
51029;DHT22;37054;52.054;8.600;2023-06-14T11:24:32;34.00;20.50
51029;DHT22;37054;52.054;8.600;2023-06-14T11:26:57;34.00;20.20
51029;DHT22;37054;52.054;8.600;2023-06-14T11:29:23;33.90;19.90
51029;DHT22;37054;52.054;8.600;2023-06-14T11:31:48;33.80;20.50
51029;DHT22;37054;52.054;8.600;2023-06-14T11:34:14;33.70;20.70
51029;DHT22;37054;52.054;8.600;2023-06-14T11:36:40;33.60;20.90
51029;DHT22;37054;52.054;8.600;2023-06-14T11:39:07;33.50;21.10
51029;DHT22;37054;52.054;8.600;2023-06-14T11:41:36;33.60;21.20
51029;DHT22;37054;52.054;8.600;2023-06-14T11:44:02;33.30;21.00
51029;DHT22;37054;52.054;8.600;2023-06-14T11:46:28;33.10;21.50
51029;DHT22;37054;52.054;8.600;2023-06-14T11:48:53;33.00;21.70
51029;DHT22;37054;52.054;8.600;2023-06-14T11:51:19;32.90;22.00
51029;DHT22;37054;52.054;8.600;2023-06-14T11:53:44;32.90;22.10
51029;DHT22;37054;52.054;8.600;2023-06-14T11:56:10;32.70;22.00
51029;DHT22;37054;52.054;8.600;2023-06-14T11:58:36;32.70;22.20
51029;DHT22;37054;52.054;8.600;2023-06-14T12:01:04;32.90;22.30
51029;DHT22;37054;52.054;8.600;2023-06-14T12:03:30;32.90;22.10
51029;DHT22;37054;52.054;8.600;2023-06-14T12:06:03;32.80;22.20
51029;DHT22;37054;52.054;8.600;2023-06-14T12:08:36;32.70;22.30
51029;DHT22;37054;52.054;8.600;2023-06-14T12:11:14;32.60;22.40
51029;DHT22;37054;52.054;8.600;2023-06-14T12:13:43;32.80;22.60
51029;DHT22;37054;52.054;8.600;2023-06-14T12:16:09;33.00;22.40
51029;DHT22;37054;52.054;8.600;2023-06-14T12:18:35;33.30;22.40
51029;DHT22;37054;52.054;8.600;2023-06-14T12:21:01;33.70;22.10
51029;DHT22;37054;52.054;8.600;2023-06-14T12:23:38;33.80;21.60
51029;DHT22;37054;52.054;8.600;2023-06-14T12:26:03;33.50;21.50
51029;DHT22;37054;52.054;8.600;2023-06-14T12:28:31;33.20;21.70
51029;DHT22;37054;52.054;8.600;2023-06-14T12:30:56;33.10;22.00
51029;DHT22;37054;52.054;8.600;2023-06-14T12:33:24;32.80;21.90
51029;DHT22;37054;52.054;8.600;2023-06-14T12:35:49;32.50;22.30
51029;DHT22;37054;52.054;8.600;2023-06-14T12:38:15;32.30;22.60
51029;DHT22;37054;52.054;8.600;2023-06-14T12:40:41;32.40;22.40
51029;DHT22;37054;52.054;8.600;2023-06-14T12:43:07;32.50;22.50
51029;DHT22;37054;52.054;8.600;2023-06-14T12:45:33;32.60;22.10
51029;DHT22;37054;52.054;8.600;2023-06-14T12:47:58;32.50;21.90
51029;DHT22;37054;52.054;8.600;2023-06-14T12:50:23;32.20;21.90
51029;DHT22;37054;52.054;8.600;2023-06-14T12:52:49;32.20;22.10
51029;DHT22;37054;52.054;8.600;2023-06-14T12:55:15;32.30;22.20
51029;DHT22;37054;52.054;8.600;2023-06-14T12:57:40;32.50;22.10
51029;DHT22;37054;52.054;8.600;2023-06-14T13:00:06;32.50;22.10
51029;DHT22;37054;52.054;8.600;2023-06-14T13:02:32;32.40;22.00
51029;DHT22;37054;52.054;8.600;2023-06-14T13:04:58;32.20;22.20
51029;DHT22;37054;52.054;8.600;2023-06-14T13:07:24;32.00;22.30
51029;DHT22;37054;52.054;8.600;2023-06-14T13:09:50;31.90;23.10
51029;DHT22;37054;52.054;8.600;2023-06-14T13:12:15;32.10;22.80
51029;DHT22;37054;52.054;8.600;2023-06-14T13:14:41;32.20;22.70
51029;DHT22;37054;52.054;8.600;2023-06-14T13:17:09;32.30;22.50
51029;DHT22;37054;52.054;8.600;2023-06-14T13:19:35;32.60;22.50
51029;DHT22;37054;52.054;8.600;2023-06-14T13:22:01;32.90;22.40
51029;DHT22;37054;52.054;8.600;2023-06-14T13:24:26;33.20;22.00
51029;DHT22;37054;52.054;8.600;2023-06-14T13:26:52;33.30;22.10
51029;DHT22;37054;52.054;8.600;2023-06-14T13:29:17;33.20;22.10
51029;DHT22;37054;52.054;8.600;2023-06-14T13:31:43;32.80;22.30
51029;DHT22;37054;52.054;8.600;2023-06-14T13:34:08;32.40;22.50
51029;DHT22;37054;52.054;8.600;2023-06-14T13:36:33;31.90;23.00
51029;DHT22;37054;52.054;8.600;2023-06-14T13:39:00;31.50;23.60
51029;DHT22;37054;52.054;8.600;2023-06-14T13:41:25;31.40;23.60
51029;DHT22;37054;52.054;8.600;2023-06-14T13:43:57;31.50;23.80
51029;DHT22;37054;52.054;8.600;2023-06-14T13:46:22;31.80;23.60
51029;DHT22;37054;52.054;8.600;2023-06-14T13:48:47;32.30;23.30
51029;DHT22;37054;52.054;8.600;2023-06-14T13:51:13;32.80;22.70
51029;DHT22;37054;52.054;8.600;2023-06-14T13:53:38;32.90;22.70
51029;DHT22;37054;52.054;8.600;2023-06-14T13:56:04;32.70;22.50
51029;DHT22;37054;52.054;8.600;2023-06-14T13:58:30;32.20;22.60
51029;DHT22;37054;52.054;8.600;2023-06-14T14:00:55;31.80;23.00
51029;DHT22;37054;52.054;8.600;2023-06-14T14:03:21;31.50;23.40
51029;DHT22;37054;52.054;8.600;2023-06-14T14:05:46;31.30;23.90
51029;DHT22;37054;52.054;8.600;2023-06-14T14:08:12;31.10;24.20
51029;DHT22;37054;52.054;8.600;2023-06-14T14:10:38;30.80;24.70
51029;DHT22;37054;52.054;8.600;2023-06-14T14:13:03;30.70;25.10
51029;DHT22;37054;52.054;8.600;2023-06-14T14:15:28;30.60;25.20
51029;DHT22;37054;52.054;8.600;2023-06-14T14:17:55;30.70;25.20
51029;DHT22;37054;52.054;8.600;2023-06-14T14:20:22;30.80;25.20
51029;DHT22;37054;52.054;8.600;2023-06-14T14:22:48;30.90;25.00
51029;DHT22;37054;52.054;8.600;2023-06-14T14:25:13;31.10;24.90
51029;DHT22;37054;52.054;8.600;2023-06-14T14:27:39;31.20;25.10
51029;DHT22;37054;52.054;8.600;2023-06-14T14:30:05;31.40;24.50
51029;DHT22;37054;52.054;8.600;2023-06-14T14:32:31;31.50;23.80
51029;DHT22;37054;52.054;8.600;2023-06-14T14:34:56;31.60;23.90
51029;DHT22;37054;52.054;8.600;2023-06-14T14:37:22;31.70;23.80
51029;DHT22;37054;52.054;8.600;2023-06-14T14:39:47;31.30;23.80
51029;DHT22;37054;52.054;8.600;2023-06-14T14:42:13;30.80;24.10
51029;DHT22;37054;52.054;8.600;2023-06-14T14:44:38;30.40;24.60
51029;DHT22;37054;52.054;8.600;2023-06-14T14:47:04;30.50;24.80
51029;DHT22;37054;52.054;8.600;2023-06-14T14:49:30;30.70;24.70
51029;DHT22;37054;52.054;8.600;2023-06-14T14:51:56;30.70;24.80
51029;DHT22;37054;52.054;8.600;2023-06-14T14:54:21;30.50;24.80
51029;DHT22;37054;52.054;8.600;2023-06-14T14:56:47;30.20;25.30
51029;DHT22;37054;52.054;8.600;2023-06-14T14:59:12;29.90;25.50
51029;DHT22;37054;52.054;8.600;2023-06-14T15:01:38;29.70;25.80
51029;DHT22;37054;52.054;8.600;2023-06-14T15:04:03;29.50;26.00
51029;DHT22;37054;52.054;8.600;2023-06-14T15:06:29;29.40;26.40
51029;DHT22;37054;52.054;8.600;2023-06-14T15:08:55;29.30;26.50
51029;DHT22;37054;52.054;8.600;2023-06-14T15:11:21;29.20;26.90
51029;DHT22;37054;52.054;8.600;2023-06-14T15:13:47;29.10;26.90
51029;DHT22;37054;52.054;8.600;2023-06-14T15:16:12;29.00;26.90
51029;DHT22;37054;52.054;8.600;2023-06-14T15:18:38;28.90;27.00
51029;DHT22;37054;52.054;8.600;2023-06-14T15:21:03;28.80;27.10
51029;DHT22;37054;52.054;8.600;2023-06-14T15:23:28;28.80;27.20
51029;DHT22;37054;52.054;8.600;2023-06-14T15:25:54;28.80;27.40
51029;DHT22;37054;52.054;8.600;2023-06-14T15:28:19;28.80;27.70
51029;DHT22;37054;52.054;8.600;2023-06-14T15:30:46;28.70;27.90
51029;DHT22;37054;52.054;8.600;2023-06-14T15:33:12;28.60;27.90
51029;DHT22;37054;52.054;8.600;2023-06-14T15:35:37;28.60;27.90
51029;DHT22;37054;52.054;8.600;2023-06-14T15:38:03;28.60;28.10